createdAt,value
2022-12-23T00:01:34.523Z,10.27
2022-12-23T00:04:01.273Z,24.37
2022-12-23T00:06:28.038Z,23.90
2022-12-23T00:08:58.176Z,12.67
2022-12-23T00:11:27.007Z,10.90
2022-12-23T00:14:20.126Z,11.93
2022-12-23T00:16:50.001Z,11.33
2022-12-23T00:19:16.688Z,11.87
2022-12-23T00:21:43.411Z,12.10
2022-12-23T00:24:12.044Z,13.60
2022-12-23T00:26:40.986Z,14.13
2022-12-23T00:29:13.760Z,12.50
2022-12-23T00:31:40.544Z,13.83
2022-12-23T00:34:07.370Z,10.80
2022-12-23T00:36:34.321Z,10.17
2022-12-23T00:39:19.669Z,10.10
2022-12-23T00:42:04.847Z,9.37
2022-12-23T00:44:31.683Z,8.77
2022-12-23T00:46:58.472Z,9.10
2022-12-23T00:49:43.641Z,8.97
2022-12-23T00:52:15.414Z,8.37
2022-12-23T00:54:42.292Z,9.63
2022-12-23T00:57:09.010Z,8.17
2022-12-23T00:59:35.907Z,8.33
2022-12-23T01:02:21.325Z,8.80
2022-12-23T01:05:06.564Z,9.47
2022-12-23T01:07:33.366Z,10.10
2022-12-23T01:10:00.085Z,10.33
2022-12-23T01:12:27.194Z,10.67
2022-12-23T01:14:53.975Z,10.90
2022-12-23T01:17:20.864Z,11.87
2022-12-23T01:19:47.691Z,12.20
2022-12-23T01:22:14.433Z,11.97
2022-12-23T01:24:41.054Z,12.40
2022-12-23T01:27:07.920Z,11.97
2022-12-23T01:29:34.577Z,12.73
2022-12-23T01:32:01.441Z,11.90
2022-12-23T01:34:34.253Z,13.07
2022-12-23T01:37:03.155Z,13.57
2022-12-23T01:39:29.825Z,12.73
2022-12-23T01:42:15.363Z,14.33
2022-12-23T01:45:02.290Z,13.17
2022-12-23T01:47:43.908Z,12.60
2022-12-23T01:50:37.766Z,12.97
2022-12-23T01:53:26.486Z,13.43
2022-12-23T01:55:57.517Z,13.73
2022-12-23T01:58:36.452Z,13.07
2022-12-23T02:01:22.189Z,12.80
2022-12-23T02:03:53.362Z,13.57
2022-12-23T02:06:43.539Z,14.53
2022-12-23T02:09:17.932Z,14.30
2022-12-23T02:12:02.363Z,14.07
2022-12-23T02:14:55.118Z,13.93
2022-12-23T02:17:41.410Z,15.03
2022-12-23T02:20:40.572Z,14.83
2022-12-23T02:23:44.479Z,15.40
2022-12-23T02:27:08.200Z,16.37
2022-12-23T02:30:08.035Z,16.60
2022-12-23T02:33:41.385Z,15.13
2022-12-23T02:36:20.095Z,15.37
2022-12-23T02:39:14.295Z,15.77
2022-12-23T02:41:57.454Z,15.60
2022-12-23T02:44:29.868Z,17.27
2022-12-23T02:47:06.317Z,15.30
2022-12-23T02:49:39.432Z,16.47
2022-12-23T02:52:13.170Z,16.57
2022-12-23T02:54:56.095Z,16.80
2022-12-23T02:57:33.645Z,17.13
2022-12-23T03:00:03.091Z,14.97
2022-12-23T03:02:34.239Z,17.97
2022-12-23T03:05:01.404Z,16.23
2022-12-23T03:07:41.427Z,16.27
2022-12-23T03:10:19.449Z,16.87
2022-12-23T03:13:11.759Z,17.03
2022-12-23T03:16:00.886Z,16.83
2022-12-23T03:18:45.142Z,16.43
2022-12-23T03:21:35.562Z,16.90
2022-12-23T03:24:18.869Z,17.33
2022-12-23T03:26:57.532Z,16.60
2022-12-23T03:30:04.963Z,18.13
2022-12-23T03:32:55.814Z,17.30
2022-12-23T03:35:38.331Z,18.90
2022-12-23T03:38:07.573Z,19.23
2022-12-23T03:40:58.201Z,17.23
2022-12-23T03:43:33.060Z,17.10
2022-12-23T03:46:08.688Z,18.93
2022-12-23T03:49:07.104Z,17.67
2022-12-23T03:51:50.811Z,16.80
2022-12-23T03:54:27.172Z,16.63
2022-12-23T03:57:03.081Z,16.17
2022-12-23T03:59:45.122Z,17.23
2022-12-23T04:02:42.242Z,17.43
2022-12-23T04:05:27.180Z,16.70
2022-12-23T04:08:01.495Z,17.43
2022-12-23T04:10:28.614Z,17.33
2022-12-23T04:12:55.507Z,17.57
2022-12-23T04:15:25.271Z,16.73
2022-12-23T04:17:54.493Z,18.43
2022-12-23T04:20:21.477Z,16.57
2022-12-23T04:22:48.656Z,16.77
2022-12-23T04:25:17.215Z,17.00
2022-12-23T04:27:44.382Z,16.80
2022-12-23T04:30:13.856Z,16.00
2022-12-23T04:32:41.939Z,17.03
2022-12-23T04:35:09.865Z,16.23
2022-12-23T04:37:36.782Z,17.33
2022-12-23T04:40:04.825Z,16.90
2022-12-23T04:42:31.514Z,17.00
2022-12-23T04:44:58.475Z,16.40
2022-12-23T04:47:25.206Z,15.80
2022-12-23T04:49:51.858Z,17.00
2022-12-23T04:52:18.612Z,16.77
2022-12-23T04:54:46.371Z,15.57
2022-12-23T04:57:13.777Z,16.57
2022-12-23T04:59:40.479Z,17.00
2022-12-23T05:02:08.328Z,16.07
2022-12-23T05:04:35.222Z,16.13
2022-12-23T05:07:02.028Z,16.43
2022-12-23T05:09:28.733Z,16.20
2022-12-23T05:11:55.626Z,18.83
2022-12-23T05:14:22.401Z,17.60
2022-12-23T05:16:49.203Z,16.03
2022-12-23T05:19:16.007Z,15.83
2022-12-23T05:21:42.748Z,15.10
2022-12-23T05:24:09.552Z,14.20
2022-12-23T05:26:36.337Z,14.37
2022-12-23T05:29:03.124Z,13.00
2022-12-23T05:31:29.816Z,14.10
2022-12-23T05:33:59.585Z,12.70
2022-12-23T05:36:30.995Z,13.97
2022-12-23T05:38:57.815Z,12.63
2022-12-23T05:41:24.618Z,13.13
2022-12-23T05:43:51.383Z,14.87
2022-12-23T05:46:24.280Z,16.07
2022-12-23T05:48:53.243Z,17.07
2022-12-23T05:51:20.116Z,19.87
2022-12-23T05:53:46.934Z,22.40
2022-12-23T05:56:13.761Z,19.50
2022-12-23T05:58:40.579Z,18.33
2022-12-23T06:01:07.845Z,16.67
2022-12-23T06:03:34.941Z,16.13
2022-12-23T06:06:01.818Z,17.37
2022-12-23T06:08:28.519Z,18.47
2022-12-23T06:10:55.348Z,19.13
2022-12-23T06:13:22.030Z,18.67
2022-12-23T06:15:48.744Z,19.93
2022-12-23T06:18:15.523Z,21.57
2022-12-23T06:20:45.034Z,19.37
2022-12-23T06:23:11.731Z,21.57
2022-12-23T06:25:38.456Z,24.07
2022-12-23T06:28:07.505Z,22.40
2022-12-23T06:30:34.336Z,24.27
2022-12-23T06:33:01.094Z,24.10
2022-12-23T06:35:27.874Z,25.17
2022-12-23T06:37:54.579Z,25.80
2022-12-23T06:40:21.308Z,24.83
2022-12-23T06:42:48.137Z,24.83
2022-12-23T06:45:14.905Z,25.83
2022-12-23T06:47:41.677Z,23.90
2022-12-23T06:50:09.241Z,25.20
2022-12-23T06:52:35.930Z,23.90
2022-12-23T06:55:02.684Z,23.67
2022-12-23T06:57:29.403Z,24.40
2022-12-23T06:59:56.128Z,23.27
2022-12-23T07:02:23.162Z,21.60
2022-12-23T07:04:49.869Z,21.43
2022-12-23T07:07:16.546Z,18.80
2022-12-23T07:09:43.248Z,19.97
2022-12-23T07:12:10.153Z,21.27
2022-12-23T07:14:36.810Z,17.83
2022-12-23T07:17:03.630Z,19.87
2022-12-23T07:19:30.413Z,19.23
2022-12-23T07:21:57.207Z,18.17
2022-12-23T07:24:23.923Z,17.43
2022-12-23T07:26:51.773Z,17.60
2022-12-23T07:29:18.458Z,17.23
2022-12-23T07:31:45.358Z,18.47
2022-12-23T07:34:12.139Z,18.73
2022-12-23T07:36:38.810Z,17.73
2022-12-23T07:39:05.609Z,17.23
2022-12-23T07:41:32.383Z,17.40
2022-12-23T07:44:06.609Z,18.20
2022-12-23T07:46:33.475Z,17.93
2022-12-23T07:49:00.206Z,16.57
2022-12-23T07:51:26.987Z,17.43
2022-12-23T07:53:53.701Z,17.13
2022-12-23T07:56:20.823Z,17.53
2022-12-23T07:58:52.579Z,17.57
2022-12-23T08:01:21.253Z,16.47
2022-12-23T08:03:48.719Z,17.37
2022-12-23T08:06:16.635Z,17.13
2022-12-23T08:08:45.940Z,16.33
2022-12-23T08:11:14.962Z,16.97
2022-12-23T08:13:44.508Z,17.37
2022-12-23T08:16:12.432Z,17.77
2022-12-23T08:18:41.443Z,17.83
2022-12-23T08:21:19.315Z,17.63
2022-12-23T08:23:47.620Z,17.33
2022-12-23T08:26:18.562Z,17.20
2022-12-23T08:28:45.899Z,17.20
2022-12-23T08:31:15.868Z,17.53
2022-12-23T08:33:46.523Z,18.53
2022-12-23T08:36:23.357Z,17.33
2022-12-23T08:38:55.415Z,17.90
2022-12-23T08:41:27.646Z,17.13
2022-12-23T08:43:54.438Z,18.27
2022-12-23T08:46:21.399Z,18.13
2022-12-23T08:48:49.769Z,18.37
2022-12-23T08:51:20.204Z,17.43
2022-12-23T08:53:48.194Z,18.20
2022-12-23T08:56:21.308Z,18.03
2022-12-23T08:58:52.940Z,17.70
2022-12-23T09:01:24.123Z,17.03
2022-12-23T09:03:51.503Z,16.70
2022-12-23T09:06:28.527Z,15.63
2022-12-23T09:08:56.215Z,14.90
2022-12-23T09:11:30.142Z,14.93
2022-12-23T09:14:02.114Z,14.03
2022-12-23T09:16:29.746Z,13.40
2022-12-23T09:18:56.690Z,14.93
2022-12-23T09:21:24.545Z,15.70
2022-12-23T09:23:51.991Z,13.67
2022-12-23T09:26:27.368Z,15.07
2022-12-23T09:28:54.742Z,15.83
2022-12-23T09:31:22.809Z,14.50
2022-12-23T09:33:52.212Z,13.50
2022-12-23T09:36:20.247Z,13.80
2022-12-23T09:38:47.286Z,14.13
2022-12-23T09:42:18.709Z,14.10
2022-12-23T09:45:01.183Z,13.97
2022-12-23T09:47:29.581Z,14.87
2022-12-23T09:50:01.225Z,15.40
2022-12-23T09:52:53.796Z,14.27
2022-12-23T09:55:23.924Z,15.80
2022-12-23T09:58:02.038Z,14.77
2022-12-23T10:00:39.673Z,15.60
2022-12-23T10:03:26.087Z,13.83
2022-12-23T10:06:17.852Z,14.57
2022-12-23T10:08:47.858Z,15.53
2022-12-23T10:11:29.790Z,15.70
2022-12-23T10:14:28.771Z,13.97
2022-12-23T10:17:06.969Z,14.27
2022-12-23T10:19:41.859Z,14.30
2022-12-23T10:22:19.532Z,12.90
2022-12-23T10:24:48.236Z,13.90
2022-12-23T10:27:41.049Z,15.17
2022-12-23T10:30:41.977Z,12.57
2022-12-23T10:33:18.714Z,14.97
2022-12-23T10:36:23.537Z,14.30
2022-12-23T10:39:02.662Z,15.37
2022-12-23T10:42:04.262Z,13.33
2022-12-23T10:45:00.202Z,11.70
2022-12-23T10:47:51.743Z,12.57
2022-12-23T10:51:20.488Z,11.73
2022-12-23T10:54:06.530Z,12.20
2022-12-23T10:56:33.524Z,11.50
2022-12-23T10:59:01.460Z,12.73
2022-12-23T11:01:31.256Z,12.87
2022-12-23T11:04:08.521Z,12.33
2022-12-23T11:06:41.003Z,12.73
2022-12-23T11:09:22.528Z,15.13
2022-12-23T11:12:00.823Z,16.10
2022-12-23T11:14:42.180Z,16.37
2022-12-23T11:17:24.866Z,17.60
2022-12-23T11:20:16.297Z,18.33
2022-12-23T11:22:56.613Z,17.10
2022-12-23T11:25:36.964Z,16.60
2022-12-23T11:28:11.193Z,16.17
2022-12-23T11:30:56.258Z,16.63
2022-12-23T11:33:32.593Z,15.73
2022-12-23T11:36:23.975Z,16.77
2022-12-23T11:39:07.800Z,17.67
2022-12-23T11:41:43.922Z,18.30
2022-12-23T11:44:28.860Z,16.80
2022-12-23T11:46:55.617Z,15.77
2022-12-23T11:49:49.546Z,15.23
2022-12-23T11:52:21.129Z,14.57
2022-12-23T11:54:57.355Z,14.97
2022-12-23T11:57:47.599Z,17.17
2022-12-23T12:00:20.463Z,15.77
2022-12-23T12:02:52.969Z,14.40
2022-12-23T12:05:25.343Z,15.27
2022-12-23T12:07:52.727Z,16.10
2022-12-23T12:10:28.010Z,16.87
2022-12-23T12:13:03.689Z,17.83
2022-12-23T12:16:02.543Z,16.00
2022-12-23T12:18:29.802Z,16.83
2022-12-23T12:21:06.924Z,16.13
2022-12-23T12:23:48.715Z,27.03
2022-12-23T12:26:32.559Z,14.87
2022-12-23T12:29:08.051Z,15.73
2022-12-23T12:31:42.459Z,15.23
2022-12-23T12:34:44.311Z,14.10
2022-12-23T12:37:41.814Z,15.57
2022-12-23T12:40:26.854Z,15.53
2022-12-23T12:43:24.220Z,14.43
2022-12-23T12:46:34.145Z,14.97
2022-12-23T12:49:26.856Z,13.70
2022-12-23T12:52:09.033Z,13.77
2022-12-23T12:54:45.769Z,14.17
2022-12-23T12:57:19.411Z,14.23
2022-12-23T12:59:51.215Z,15.20
2022-12-23T13:03:04.680Z,13.70
2022-12-23T13:05:54.451Z,14.50
2022-12-23T13:09:02.905Z,12.63
2022-12-23T13:11:45.464Z,23.60
2022-12-23T13:14:27.472Z,18.87
2022-12-23T13:17:28.809Z,13.60
2022-12-23T13:20:31.414Z,13.23
2022-12-23T13:23:21.056Z,14.60
2022-12-23T13:26:05.143Z,12.43
2022-12-23T13:28:53.550Z,17.97
2022-12-23T13:32:01.120Z,15.20
2022-12-23T13:34:47.856Z,12.77
2022-12-23T13:37:26.103Z,13.87
2022-12-23T13:40:42.496Z,12.43
2022-12-23T13:43:21.507Z,13.33
2022-12-23T13:45:50.012Z,14.93
2022-12-23T13:48:47.173Z,13.20
2022-12-23T13:51:30.642Z,13.73
2022-12-23T13:54:15.518Z,13.57
2022-12-23T13:57:09.403Z,12.73
2022-12-23T13:59:43.120Z,13.33
2022-12-23T14:02:36.339Z,12.33
2022-12-23T14:05:08.380Z,12.40
2022-12-23T14:07:38.583Z,12.93
2022-12-23T14:10:22.652Z,12.87
2022-12-23T14:12:51.892Z,13.27
2022-12-23T14:15:46.272Z,14.77
2022-12-23T14:18:23.603Z,13.10
2022-12-23T14:21:14.864Z,12.90
2022-12-23T14:24:20.225Z,13.27
2022-12-23T14:27:17.097Z,12.13
2022-12-23T14:30:01.423Z,12.53
2022-12-23T14:32:55.184Z,12.77
2022-12-23T14:35:42.193Z,12.77
2022-12-23T14:38:32.066Z,13.63
2022-12-23T14:41:44.783Z,12.67
2022-12-23T14:44:21.653Z,11.83
2022-12-23T14:46:48.425Z,13.13
2022-12-23T14:49:39.943Z,12.83
2022-12-23T14:52:38.023Z,14.03
2022-12-23T14:55:32.628Z,12.83
2022-12-23T14:58:17.793Z,12.90
2022-12-23T15:01:32.376Z,12.80
2022-12-23T15:04:05.337Z,13.87
2022-12-23T15:06:44.325Z,13.57
2022-12-23T15:09:30.746Z,13.87
2022-12-23T15:12:06.433Z,15.23
2022-12-23T15:14:43.870Z,14.73
2022-12-23T15:17:35.510Z,16.90
2022-12-23T15:20:13.984Z,16.77
2022-12-23T15:22:44.381Z,16.93
2022-12-23T15:25:24.610Z,17.57
2022-12-23T15:28:01.155Z,19.90
2022-12-23T15:30:52.415Z,17.80
2022-12-23T15:36:12.105Z,17.03
2022-12-23T15:38:39.456Z,17.40
2022-12-23T15:41:16.107Z,17.13
2022-12-23T15:43:44.632Z,17.30
2022-12-23T15:46:28.643Z,20.03
2022-12-23T15:48:56.865Z,18.57
2022-12-23T15:52:06.273Z,18.70
2022-12-23T15:54:30.754Z,22.13
2022-12-23T15:57:00.200Z,20.00
2022-12-23T15:59:39.405Z,18.57
2022-12-23T16:05:38.544Z,19.00
2022-12-23T16:08:32.859Z,18.07
2022-12-23T16:11:19.711Z,19.03
2022-12-23T16:14:02.941Z,20.03
2022-12-23T16:16:48.411Z,18.67
2022-12-23T16:19:37.072Z,19.70
2022-12-23T16:22:33.081Z,20.03
2022-12-23T16:25:02.628Z,20.57
2022-12-23T16:28:02.630Z,19.77
2022-12-23T16:30:36.483Z,20.43
2022-12-23T16:33:07.094Z,21.43
2022-12-23T16:35:41.002Z,20.73
2022-12-23T16:38:13.689Z,23.10
2022-12-23T16:40:42.141Z,22.87
2022-12-23T16:43:08.873Z,24.07
2022-12-23T16:45:36.953Z,23.47
2022-12-23T16:48:25.015Z,21.20
2022-12-23T16:50:53.245Z,22.73
2022-12-23T16:53:20.082Z,21.40
2022-12-23T16:55:53.690Z,20.47
2022-12-23T16:58:25.432Z,21.47
2022-12-23T17:00:53.053Z,32.03
2022-12-23T17:03:20.927Z,29.57
2022-12-23T17:05:48.543Z,21.27
2022-12-23T17:08:15.936Z,20.47
2022-12-23T17:10:46.789Z,17.77
2022-12-23T17:13:19.073Z,18.97
2022-12-23T17:15:45.817Z,19.17
2022-12-23T17:18:15.934Z,17.57
2022-12-23T17:20:46.002Z,18.10
2022-12-23T17:23:24.915Z,17.87
2022-12-23T17:25:52.599Z,18.13
2022-12-23T17:28:19.674Z,17.83
2022-12-23T17:30:46.384Z,17.50
2022-12-23T17:33:18.420Z,17.30
2022-12-23T17:35:45.249Z,16.63
2022-12-23T17:38:16.542Z,16.47
2022-12-23T17:40:46.763Z,18.37
2022-12-23T17:43:18.106Z,18.03
2022-12-23T17:45:45.469Z,17.97
2022-12-23T17:48:20.604Z,17.00
2022-12-23T17:50:49.416Z,16.93
2022-12-23T17:53:18.957Z,17.70
2022-12-23T17:55:45.946Z,16.27
2022-12-23T17:58:13.937Z,15.90
2022-12-23T18:00:40.896Z,17.37
2022-12-23T18:03:20.240Z,18.80
2022-12-23T18:05:47.070Z,18.57
2022-12-23T18:08:13.907Z,17.13
2022-12-23T18:10:40.831Z,18.20
2022-12-23T18:13:14.232Z,18.40
2022-12-23T18:15:43.208Z,17.27
2022-12-23T18:18:20.465Z,18.40
2022-12-23T18:20:55.375Z,18.53
2022-12-23T18:23:28.352Z,17.37
2022-12-23T18:25:56.774Z,18.33
2022-12-23T18:28:24.613Z,19.50
2022-12-23T18:30:54.766Z,17.67
2022-12-23T18:33:21.855Z,18.03
2022-12-23T18:35:50.079Z,19.40
2022-12-23T18:38:18.439Z,19.83
2022-12-23T18:40:45.603Z,18.87
2022-12-23T18:43:25.229Z,19.87
2022-12-23T18:45:53.923Z,19.83
2022-12-23T18:48:21.674Z,19.83
2022-12-23T18:50:48.887Z,19.70
2022-12-23T18:53:24.608Z,20.33
2022-12-23T18:55:53.748Z,20.83
2022-12-23T18:58:21.448Z,21.30
2022-12-23T19:00:50.351Z,21.33
2022-12-23T19:03:30.620Z,21.87
2022-12-23T19:06:06.402Z,24.47
2022-12-23T19:08:35.859Z,29.10
2022-12-23T19:11:08.884Z,27.70
2022-12-23T19:13:35.752Z,24.00
2022-12-23T19:16:02.550Z,23.00
2022-12-23T19:18:29.381Z,25.47
2022-12-23T19:20:56.175Z,25.43
2022-12-23T19:23:23.061Z,22.90
2022-12-23T19:25:55.185Z,20.47
2022-12-23T19:28:22.941Z,20.60
2022-12-23T19:30:49.961Z,19.90
2022-12-23T19:33:17.047Z,20.03
2022-12-23T19:35:44.538Z,19.70
2022-12-23T19:38:12.370Z,19.50
2022-12-23T19:40:39.625Z,18.33
2022-12-23T19:43:06.380Z,20.13
2022-12-23T19:45:33.239Z,19.10
2022-12-23T19:47:59.919Z,17.77
2022-12-23T19:50:27.251Z,18.63
2022-12-23T19:52:56.064Z,18.10
2022-12-23T19:55:23.531Z,18.40
2022-12-23T19:57:50.487Z,16.10
2022-12-23T20:00:17.265Z,18.30
2022-12-23T20:02:44.225Z,18.07
2022-12-23T20:05:11.015Z,18.03
2022-12-23T20:07:37.814Z,18.30
2022-12-23T20:10:06.194Z,17.33
2022-12-23T20:12:33.092Z,17.50
2022-12-23T20:14:59.873Z,20.27
2022-12-23T20:17:26.613Z,18.53
2022-12-23T20:19:53.452Z,18.80
2022-12-23T20:22:20.171Z,20.00
2022-12-23T20:24:46.836Z,19.33
2022-12-23T20:27:15.912Z,17.60
2022-12-23T20:29:43.068Z,18.53
2022-12-23T20:32:10.536Z,19.37
2022-12-23T20:34:39.889Z,18.57
2022-12-23T20:37:07.482Z,18.57
2022-12-23T20:39:34.574Z,19.23
2022-12-23T20:42:01.324Z,17.47
2022-12-23T20:44:36.975Z,18.70
2022-12-23T20:47:07.287Z,17.37
2022-12-23T20:49:34.256Z,16.83
2022-12-23T20:52:01.248Z,16.93
2022-12-23T20:54:33.234Z,17.43
2022-12-23T20:57:02.240Z,17.10
2022-12-23T20:59:29.065Z,16.97
2022-12-23T21:01:56.567Z,18.07
2022-12-23T21:04:23.458Z,18.47
2022-12-23T21:06:50.185Z,17.83
2022-12-23T21:09:17.226Z,16.73
2022-12-23T21:11:46.066Z,16.67
2022-12-23T21:14:14.425Z,16.57
2022-12-23T21:16:42.652Z,17.27
2022-12-23T21:19:16.310Z,19.00
2022-12-23T21:21:43.046Z,18.63
2022-12-23T21:24:10.204Z,17.87
2022-12-23T21:26:37.365Z,18.73
2022-12-23T21:29:07.214Z,17.00
2022-12-23T21:31:38.013Z,18.10
2022-12-23T21:34:05.223Z,19.37
2022-12-23T21:36:36.776Z,17.20
2022-12-23T21:39:05.948Z,16.67
2022-12-23T21:41:37.523Z,17.00
2022-12-23T21:44:05.496Z,17.90
2022-12-23T21:46:32.586Z,18.40
2022-12-23T21:48:59.973Z,18.30
2022-12-23T21:51:39.424Z,17.63
2022-12-23T21:54:08.680Z,17.87
2022-12-23T21:56:35.716Z,18.03
2022-12-23T21:59:06.202Z,18.63
2022-12-23T22:01:33.407Z,17.33
2022-12-23T22:04:00.549Z,17.70
2022-12-23T22:06:40.202Z,18.73
2022-12-23T22:09:08.259Z,18.23
2022-12-23T22:11:36.656Z,18.00
2022-12-23T22:14:06.643Z,18.33
2022-12-23T22:16:35.298Z,18.63
2022-12-23T22:19:03.037Z,17.53
2022-12-23T22:21:31.945Z,17.83
2022-12-23T22:24:00.240Z,19.33
2022-12-23T22:26:31.361Z,19.40
2022-12-23T22:29:02.673Z,20.60
2022-12-23T22:31:41.781Z,20.50
2022-12-23T22:34:14.551Z,21.73
2022-12-23T22:36:41.599Z,22.93
2022-12-23T22:39:12.960Z,24.03
2022-12-23T22:41:42.839Z,22.77
2022-12-23T22:44:13.325Z,25.63
2022-12-23T22:46:41.290Z,25.50
2022-12-23T22:49:10.373Z,25.00
2022-12-23T22:51:37.148Z,22.90
2022-12-23T22:54:04.011Z,23.80
2022-12-23T22:56:30.854Z,25.27
2022-12-23T22:58:57.594Z,25.10
2022-12-23T23:01:32.147Z,23.87
2022-12-23T23:04:01.310Z,24.40
2022-12-23T23:06:34.442Z,26.03
2022-12-23T23:09:01.416Z,25.10
2022-12-23T23:11:28.509Z,25.63
2022-12-23T23:13:55.824Z,24.10
2022-12-23T23:16:23.380Z,25.77
2022-12-23T23:18:51.799Z,25.13
2022-12-23T23:21:19.266Z,26.10
2022-12-23T23:23:46.308Z,26.20
2022-12-23T23:26:13.572Z,27.00
2022-12-23T23:28:41.091Z,25.40
2022-12-23T23:33:55.663Z,25.07
2022-12-23T23:36:22.380Z,25.30
2022-12-23T23:38:49.106Z,24.07
2022-12-23T23:41:20.683Z,23.03
2022-12-23T23:43:50.133Z,24.97
2022-12-23T23:46:16.921Z,24.73
2022-12-23T23:48:43.657Z,24.10
2022-12-23T23:51:10.358Z,22.50
2022-12-23T23:53:37.072Z,23.43
2022-12-23T23:56:06.812Z,22.13
2022-12-23T23:58:35.459Z,20.00
